KEBG

South Texas International at Edinburg Airport

Edinburg, Texas, USA
METAR KEBG 232015Z AUTO 33007KT 10SM OVC012 17/13 A3009 RMK AO2 T01690131
Observed Flight Rules
Oct-23 @ 20:15 UTC (17 minutes ago) Marginal Visual Flight Rules
Wind Visibility Clouds
330° at 7 knots 10 miles
  • Overcast at 1,200' AGL
Temperatures Readings
Current 17°C / 63°F
Dewpoint 13°C / 55°F
Humidity 77%
Altimeter 30.09" Hg
Pressure 1019 hPa
Elevation 24
METAR KEBG 232015Z AUTO 33007KT 10SM OVC012 17/13 A3009 RMK AO2 T01690131
Observed Flight Rules
Oct-23 @ 20:15 UTC
(17 minutes ago)
MVFR
Wind Visibility
330° at 7 knots 10 miles
Clouds
  • Overcast at 1,200' AGL
Temperature Dewpoint
17°C / 63°F 13°C / 55°F
Humidity Altimeter Pressure
77% 30.09" Hg 1019 hPa